PWSweather.com
Personal Weather Stations
Station Observations
SHAHALMS1
Eftra, Falkenberg, HA

EftraFalkenberg, HA

Lat: 56.85, Lon: 12.65

Elevation: 140

Station Type:

http://hem.passagen.se/risarp101

High Low Average
Temperature 63.1°F17.3°C 52.0°F11.1°C 57.4°F14.1°C
Dew Point 54.6°F12.6°C 47.8°F8.8°C 51.2°F10.7°C
Winds 14.0 mph 22.5 kmh Calm Calm 5.0 mph S8.0 kmh S
Wind Gusts 20.8 mph33.5 kmh -- 9.0 mph14.5 kmh
Humidity 90% 66% 80%
Pressure 30.09 in1019.0 mb 29.86 in1011.2 mb -
Precipitation 0.20 in5.1 mm - -
Hour Temp Dew Point Humidity Winds Wind Gusts Pressure Precip Precip Rate Daily Precip Total
12:00 AM 54.9°F12.7°C 51.7°F10.9°C 89% 6.2 mph S10.0 kmh S 8.9 mph14.3 kmh 29.95 in1014.2 mb 0.05 in1.3 mm 0.00 in0.0 mm 0.05 in1.3 mm
12:10 AM 54.7°F12.6°C 51.2°F10.7°C 88% 4.1 mph S6.6 kmh S 16.5 mph26.6 kmh 29.95 in1014.2 mb 0.05 in1.3 mm 0.00 in0.0 mm 0.05 in1.3 mm
12:20 AM 54.7°F12.6°C 51.2°F10.7°C 88% 7.0 mph S11.3 kmh S 16.8 mph27.0 kmh 29.95 in1014.2 mb 0.05 in1.3 mm 0.00 in0.0 mm 0.05 in1.3 mm
12:30 AM 54.7°F12.6°C 51.2°F10.7°C 88% 5.4 mph S8.7 kmh S 16.8 mph27.0 kmh 29.95 in1014.2 mb 0.05 in1.3 mm 0.00 in0.0 mm 0.05 in1.3 mm
12:40 AM 54.7°F12.6°C 51.2°F10.7°C 88% 2.4 mph S3.9 kmh S 5.0 mph8.0 kmh 29.92 in1013.2 mb 0.05 in1.3 mm 0.00 in0.0 mm 0.05 in1.3 mm
12:50 AM 54.7°F12.6°C 51.5°F10.8°C 89% 3.8 mph S6.1 kmh S 5.0 mph8.0 kmh 29.92 in1013.2 mb 0.00 in0.0 mm 0.00 in0.0 mm 0.05 in1.3 mm
01:00 AM 55.0°F12.8°C 51.9°F11.1°C 89% 5.7 mph S9.2 kmh S 8.6 mph13.8 kmh 29.92 in1013.2 mb 0.00 in0.0 mm 0.00 in0.0 mm 0.05 in1.3 mm
01:10 AM 55.0°F12.8°C 52.2°F11.2°C 90% 7.0 mph S11.3 kmh S 8.6 mph13.8 kmh 29.92 in1013.2 mb 0.00 in0.0 mm 0.00 in0.0 mm 0.05 in1.3 mm
01:20 AM 55.2°F12.9°C 52.3°F11.3°C 90% 7.0 mph S11.3 kmh S 8.6 mph13.8 kmh 29.92 in1013.2 mb 0.00 in0.0 mm 0.00 in0.0 mm 0.05 in1.3 mm
01:30 AM 55.0°F12.8°C 51.9°F11.1°C 89% 5.9 mph S9.5 kmh S 10.4 mph16.7 kmh 29.92 in1013.2 mb 0.00 in0.0 mm 0.00 in0.0 mm 0.05 in1.3 mm
01:40 AM 55.0°F12.8°C 51.9°F11.1°C 89% 8.9 mph S14.3 kmh S 14.3 mph23.0 kmh 29.89 in1012.2 mb 0.00 in0.0 mm 0.00 in0.0 mm 0.05 in1.3 mm
01:50 AM 55.0°F12.8°C 51.5°F10.8°C 88% 9.5 mph S15.3 kmh S 12.2 mph19.6 kmh 29.89 in1012.2 mb 0.00 in0.0 mm 0.00 in0.0 mm 0.05 in1.3 mm
02:00 AM 54.9°F12.7°C 51.4°F10.8°C 88% 7.1 mph S11.4 kmh S 12.2 mph19.6 kmh 29.89 in1012.2 mb 0.00 in0.0 mm 0.00 in0.0 mm 0.05 in1.3 mm
02:10 AM 55.0°F12.8°C 51.2°F10.7°C 87% 7.6 mph S12.2 kmh S 9.3 mph15.0 kmh 29.89 in1012.2 mb 0.00 in0.0 mm 0.00 in0.0 mm 0.05 in1.3 mm
02:20 AM 55.2°F12.9°C 51.1°F10.6°C 86% 14.0 mph S22.5 kmh S 17.2 mph27.7 kmh 29.89 in1012.2 mb 0.00 in0.0 mm 0.00 in0.0 mm 0.05 in1.3 mm
02:30 AM 55.4°F13.0°C 51.3°F10.7°C 86% 14.0 mph S22.5 kmh S 17.2 mph27.7 kmh 29.89 in1012.2 mb 0.05 in1.3 mm 0.30 in7.6 mm 0.09 in2.3 mm
02:40 AM 55.4°F13.0°C 51.3°F10.7°C 86% 14.0 mph S22.5 kmh S 17.2 mph27.7 kmh 29.89 in1012.2 mb 0.05 in1.3 mm 0.00 in0.0 mm 0.09 in2.3 mm
02:50 AM 55.4°F13.0°C 51.3°F10.7°C 86% 9.0 mph S14.5 kmh S 11.1 mph17.9 kmh 29.89 in1012.2 mb 0.05 in1.3 mm 0.00 in0.0 mm 0.09 in2.3 mm
03:00 AM 55.2°F12.9°C 51.4°F10.8°C 87% 9.1 mph S14.6 kmh S 16.1 mph25.9 kmh 29.89 in1012.2 mb 0.05 in1.3 mm 0.00 in0.0 mm 0.09 in2.3 mm
03:10 AM 55.2°F12.9°C 51.7°F10.9°C 88% 8.9 mph S14.3 kmh S 16.1 mph25.9 kmh 29.86 in1011.2 mb 0.05 in1.3 mm 0.00 in0.0 mm 0.09 in2.3 mm
03:20 AM 55.4°F13.0°C 51.9°F11.1°C 88% 12.2 mph S19.6 kmh S 16.1 mph25.9 kmh 29.86 in1011.2 mb 0.05 in1.3 mm 0.00 in0.0 mm 0.09 in2.3 mm
03:30 AM 55.4°F13.0°C 52.2°F11.2°C 89% 8.0 mph S12.9 kmh S 16.1 mph25.9 kmh 29.86 in1011.2 mb 0.00 in0.0 mm 0.00 in0.0 mm 0.09 in2.3 mm
03:40 AM 55.4°F13.0°C 52.2°F11.2°C 89% 8.8 mph S14.2 kmh S 19.3 mph31.1 kmh 29.86 in1011.2 mb 0.00 in0.0 mm 0.00 in0.0 mm 0.09 in2.3 mm
03:50 AM 55.4°F13.0°C 52.2°F11.2°C 89% 6.8 mph S10.9 kmh S 12.5 mph20.1 kmh 29.86 in1011.2 mb 0.00 in0.0 mm 0.00 in0.0 mm 0.09 in2.3 mm
04:00 AM 55.6°F13.1°C 52.4°F11.3°C 89% 10.6 mph S17.1 kmh S 20.8 mph33.5 kmh 29.89 in1012.2 mb 0.00 in0.0 mm 0.00 in0.0 mm 0.09 in2.3 mm
04:10 AM 55.8°F13.2°C 52.6°F11.4°C 89% 7.3 mph S11.7 kmh S 14.0 mph22.5 kmh 29.92 in1013.2 mb 0.00 in0.0 mm 0.00 in0.0 mm 0.09 in2.3 mm
04:20 AM 55.9°F13.3°C 52.7°F11.5°C 89% 11.3 mph S18.2 kmh S 14.0 mph22.5 kmh 29.92 in1013.2 mb 0.00 in0.0 mm 0.00 in0.0 mm 0.09 in2.3 mm
04:30 AM 56.1°F13.4°C 52.6°F11.4°C 88% 8.7 mph S14.0 kmh S 14.0 mph22.5 kmh 29.92 in1013.2 mb 0.00 in0.0 mm 0.00 in0.0 mm 0.09 in2.3 mm
04:40 AM 56.1°F13.4°C 52.3°F11.3°C 87% 7.9 mph S12.7 kmh S 9.7 mph15.6 kmh 29.89 in1012.2 mb 0.00 in0.0 mm 0.00 in0.0 mm 0.09 in2.3 mm
04:50 AM 56.1°F13.4°C 52.0°F11.1°C 86% 7.9 mph S12.7 kmh S 9.7 mph15.6 kmh 29.89 in1012.2 mb 0.00 in0.0 mm 0.00 in0.0 mm 0.09 in2.3 mm
05:00 AM 56.1°F13.4°C 52.0°F11.1°C 86% 7.9 mph S12.7 kmh S 9.7 mph15.6 kmh 29.86 in1011.2 mb 0.00 in0.0 mm 0.00 in0.0 mm 0.09 in2.3 mm
05:10 AM 56.3°F13.5°C 52.2°F11.2°C 86% 7.9 mph S12.7 kmh S 9.7 mph15.6 kmh 29.86 in1011.2 mb 0.00 in0.0 mm 0.00 in0.0 mm 0.09 in2.3 mm
05:20 AM 56.3°F13.5°C 52.2°F11.2°C 86% 9.9 mph S15.9 kmh S 20.0 mph32.2 kmh 29.86 in1011.2 mb 0.00 in0.0 mm 0.00 in0.0 mm 0.09 in2.3 mm
05:30 AM 56.3°F13.5°C 52.5°F11.4°C 87% 6.5 mph S10.5 kmh S 13.6 mph21.9 kmh 29.86 in1011.2 mb 0.00 in0.0 mm 0.00 in0.0 mm 0.09 in2.3 mm
05:40 AM 56.5°F13.6°C 52.7°F11.5°C 87% 4.7 mph S7.6 kmh S 5.7 mph9.2 kmh 29.92 in1013.2 mb 0.00 in0.0 mm 0.00 in0.0 mm 0.09 in2.3 mm
05:50 AM 56.7°F13.7°C 52.8°F11.6°C 87% 4.2 mph S6.8 kmh S 5.7 mph9.2 kmh 29.92 in1013.2 mb 0.00 in0.0 mm 0.00 in0.0 mm 0.09 in2.3 mm
06:00 AM 56.7°F13.7°C 52.8°F11.6°C 87% 3.8 mph S6.1 kmh S 4.7 mph7.6 kmh 29.89 in1012.2 mb 0.00 in0.0 mm 0.00 in0.0 mm 0.09 in2.3 mm
06:10 AM 56.5°F13.6°C 52.7°F11.5°C 87% 5.2 mph S8.4 kmh S 11.5 mph18.5 kmh 29.89 in1012.2 mb 0.06 in1.5 mm 0.36 in9.1 mm 0.15 in3.8 mm
06:20 AM 55.6°F13.1°C 51.5°F10.8°C 86% 5.8 mph S9.3 kmh S 11.1 mph17.9 kmh 29.89 in1012.2 mb 0.10 in2.5 mm 0.24 in6.1 mm 0.20 in5.1 mm
06:30 AM 55.4°F13.0°C 51.6°F10.9°C 87% 5.3 mph SW8.5 kmh SW 17.9 mph28.8 kmh 29.89 in1012.2 mb 0.10 in2.5 mm 0.00 in0.0 mm 0.20 in5.1 mm
06:40 AM 54.9°F12.7°C 51.1°F10.6°C 87% 3.8 mph WSW6.1 kmh WSW 8.6 mph13.8 kmh 29.89 in1012.2 mb 0.10 in2.5 mm 0.00 in0.0 mm 0.20 in5.1 mm
06:50 AM 54.9°F12.7°C 51.1°F10.6°C 87% 4.1 mph W6.6 kmh W 10.4 mph16.7 kmh 29.89 in1012.2 mb 0.10 in2.5 mm 0.00 in0.0 mm 0.20 in5.1 mm
07:00 AM 54.7°F12.6°C 51.2°F10.7°C 88% 2.8 mph WSW4.5 kmh WSW 7.5 mph12.1 kmh 29.89 in1012.2 mb 0.10 in2.5 mm 0.00 in0.0 mm 0.20 in5.1 mm
07:10 AM 54.7°F12.6°C 51.2°F10.7°C 88% 2.7 mph SW4.3 kmh SW 6.4 mph10.3 kmh 29.92 in1013.2 mb 0.05 in1.3 mm 0.00 in0.0 mm 0.20 in5.1 mm
07:20 AM 55.0°F12.8°C 51.9°F11.1°C 89% 3.1 mph SW5.0 kmh SW 9.7 mph15.6 kmh 29.92 in1013.2 mb 0.00 in0.0 mm 0.00 in0.0 mm 0.20 in5.1 mm
07:30 AM 55.4°F13.0°C 52.2°F11.2°C 89% 5.4 mph SW8.7 kmh SW 14.0 mph22.5 kmh 29.92 in1013.2 mb 0.00 in0.0 mm 0.00 in0.0 mm 0.20 in5.1 mm
07:40 AM 55.6°F13.1°C 52.4°F11.3°C 89% 6.5 mph S10.5 kmh S 14.0 mph22.5 kmh 29.92 in1013.2 mb 0.00 in0.0 mm 0.00 in0.0 mm 0.20 in5.1 mm
07:50 AM 55.9°F13.3°C 52.7°F11.5°C 89% 5.2 mph S8.4 kmh S 6.4 mph10.3 kmh 29.92 in1013.2 mb 0.00 in0.0 mm 0.00 in0.0 mm 0.20 in5.1 mm
08:00 AM 56.7°F13.7°C 53.5°F11.9°C 89% 1.7 mph W2.7 kmh W 2.1 mph3.4 kmh 29.92 in1013.2 mb 0.00 in0.0 mm 0.00 in0.0 mm 0.20 in5.1 mm
08:10 AM 57.2°F14.0°C 53.7°F12.1°C 88% 2.1 mph WSW3.4 kmh WSW 6.1 mph9.8 kmh 29.95 in1014.2 mb 0.00 in0.0 mm 0.00 in0.0 mm 0.20 in5.1 mm
08:20 AM 57.7°F14.3°C 53.9°F12.2°C 87% 7.5 mph W12.1 kmh W 11.5 mph18.5 kmh 29.95 in1014.2 mb 0.00 in0.0 mm 0.00 in0.0 mm 0.20 in5.1 mm
08:30 AM 58.3°F14.6°C 53.8°F12.1°C 85% 4.4 mph NW7.1 kmh NW 5.4 mph8.7 kmh 29.95 in1014.2 mb 0.00 in0.0 mm 0.00 in0.0 mm 0.20 in5.1 mm
08:40 AM 58.5°F14.7°C 53.3°F11.8°C 83% 4.0 mph WSW6.4 kmh WSW 7.5 mph12.1 kmh 29.95 in1014.2 mb 0.00 in0.0 mm 0.00 in0.0 mm 0.20 in5.1 mm
08:50 AM 59.0°F15.0°C 53.2°F11.8°C 81% 3.8 mph SSW6.1 kmh SSW 7.5 mph12.1 kmh 29.95 in1014.2 mb 0.00 in0.0 mm 0.00 in0.0 mm 0.20 in5.1 mm
09:00 AM 59.5°F15.3°C 54.0°F12.2°C 82% 4.1 mph W6.6 kmh W 5.0 mph8.0 kmh 29.98 in1015.2 mb 0.00 in0.0 mm 0.00 in0.0 mm 0.20 in5.1 mm
09:10 AM 59.7°F15.4°C 53.2°F11.8°C 79% 4.1 mph W6.6 kmh W 5.0 mph8.0 kmh 29.92 in1013.2 mb 0.00 in0.0 mm 0.00 in0.0 mm 0.20 in5.1 mm
09:20 AM 60.1°F15.6°C 53.5°F11.9°C 79% 2.9 mph W4.7 kmh W 4.3 mph6.9 kmh 29.92 in1013.2 mb 0.00 in0.0 mm 0.00 in0.0 mm 0.20 in5.1 mm
09:30 AM 60.1°F15.6°C 52.8°F11.6°C 77% 8.0 mph SW12.9 kmh SW 14.0 mph22.5 kmh 29.95 in1014.2 mb 0.00 in0.0 mm 0.00 in0.0 mm 0.20 in5.1 mm
09:40 AM 60.4°F15.8°C 52.5°F11.4°C 75% 6.4 mph SW10.3 kmh SW 19.3 mph31.1 kmh 29.95 in1014.2 mb 0.00 in0.0 mm 0.00 in0.0 mm 0.20 in5.1 mm
09:50 AM 60.6°F15.9°C 52.3°F11.3°C 74% 6.1 mph SW9.8 kmh SW 15.4 mph24.8 kmh 29.95 in1014.2 mb 0.00 in0.0 mm 0.00 in0.0 mm 0.20 in5.1 mm
10:00 AM 60.4°F15.8°C 51.4°F10.8°C 72% 4.9 mph SSW7.9 kmh SSW 8.9 mph14.3 kmh 29.98 in1015.2 mb 0.00 in0.0 mm 0.00 in0.0 mm 0.20 in5.1 mm
10:10 AM 60.6°F15.9°C 51.2°F10.7°C 71% 5.2 mph SW8.4 kmh SW 10.4 mph16.7 kmh 29.98 in1015.2 mb 0.00 in0.0 mm 0.00 in0.0 mm 0.20 in5.1 mm
10:20 AM 60.8°F16.0°C 51.3°F10.7°C 71% 5.3 mph SSW8.5 kmh SSW 12.5 mph20.1 kmh 29.98 in1015.2 mb 0.00 in0.0 mm 0.00 in0.0 mm 0.20 in5.1 mm
10:30 AM 61.3°F16.3°C 52.2°F11.2°C 72% 4.7 mph SW7.6 kmh SW 12.9 mph20.8 kmh 29.98 in1015.2 mb 0.00 in0.0 mm 0.00 in0.0 mm 0.20 in5.1 mm
10:40 AM 61.9°F16.6°C 51.6°F10.9°C 69% 5.8 mph W9.3 kmh W 11.8 mph19.0 kmh 29.98 in1015.2 mb 0.00 in0.0 mm 0.00 in0.0 mm 0.20 in5.1 mm
10:50 AM 61.3°F16.3°C 50.7°F10.4°C 68% 5.6 mph SW9.0 kmh SW 14.0 mph22.5 kmh 29.98 in1015.2 mb 0.00 in0.0 mm 0.00 in0.0 mm 0.20 in5.1 mm
11:00 AM 61.3°F16.3°C 51.5°F10.8°C 70% 4.7 mph S7.6 kmh S 8.6 mph13.8 kmh 30.01 in1016.3 mb 0.00 in0.0 mm 0.00 in0.0 mm 0.20 in5.1 mm
11:10 AM 61.7°F16.5°C 51.4°F10.8°C 69% 4.9 mph S7.9 kmh S 10.4 mph16.7 kmh 30.01 in1016.3 mb 0.00 in0.0 mm 0.00 in0.0 mm 0.20 in5.1 mm
11:20 AM 61.2°F16.2°C 50.9°F10.5°C 69% 4.9 mph S7.9 kmh S 7.5 mph12.1 kmh 30.01 in1016.3 mb 0.00 in0.0 mm 0.00 in0.0 mm 0.20 in5.1 mm
11:30 AM 61.0°F16.1°C 50.3°F10.2°C 68% 5.4 mph S8.7 kmh S 7.5 mph12.1 kmh 30.01 in1016.3 mb 0.00 in0.0 mm 0.00 in0.0 mm 0.20 in5.1 mm
11:40 AM 60.4°F15.8°C 50.6°F10.3°C 70% 3.1 mph S5.0 kmh S 3.9 mph6.3 kmh 30.01 in1016.3 mb 0.00 in0.0 mm 0.00 in0.0 mm 0.20 in5.1 mm
11:50 AM 59.2°F15.1°C 50.2°F10.1°C 72% 2.1 mph WSW3.4 kmh WSW 5.7 mph9.2 kmh 30.01 in1016.3 mb 0.00 in0.0 mm 0.00 in0.0 mm 0.20 in5.1 mm
12:00 PM 59.4°F15.2°C 51.4°F10.8°C 75% 1.0 mph SSE1.6 kmh SSE 5.4 mph8.7 kmh 30.01 in1016.3 mb 0.00 in0.0 mm 0.00 in0.0 mm 0.20 in5.1 mm
12:10 PM 59.5°F15.3°C 52.7°F11.5°C 78% 1.2 mph SW1.9 kmh SW 4.7 mph7.6 kmh 30.01 in1016.3 mb 0.00 in0.0 mm 0.00 in0.0 mm 0.20 in5.1 mm
12:20 PM 59.9°F15.5°C 53.4°F11.9°C 79% 2.1 mph W3.4 kmh W 5.4 mph8.7 kmh 30.01 in1016.3 mb 0.00 in0.0 mm 0.00 in0.0 mm 0.20 in5.1 mm
12:30 PM 60.4°F15.8°C 53.9°F12.2°C 79% 3.6 mph WSW5.8 kmh WSW 6.1 mph9.8 kmh 30.01 in1016.3 mb 0.00 in0.0 mm 0.00 in0.0 mm 0.20 in5.1 mm
12:40 PM 60.8°F16.0°C 54.6°F12.6°C 80% 3.9 mph SW6.3 kmh SW 6.1 mph9.8 kmh 30.01 in1016.3 mb 0.00 in0.0 mm 0.00 in0.0 mm 0.20 in5.1 mm
12:50 PM 60.8°F16.0°C 53.9°F12.2°C 78% 4.4 mph S7.1 kmh S 5.4 mph8.7 kmh 30.01 in1016.3 mb 0.00 in0.0 mm 0.00 in0.0 mm 0.20 in5.1 mm
01:00 PM 60.4°F15.8°C 53.5°F11.9°C 78% 5.8 mph SSW9.3 kmh SSW 12.5 mph20.1 kmh 30.01 in1016.3 mb 0.00 in0.0 mm 0.00 in0.0 mm 0.20 in5.1 mm
01:10 PM 60.3°F15.7°C 53.4°F11.9°C 78% 3.5 mph S5.6 kmh S 10.0 mph16.1 kmh 30.01 in1016.3 mb 0.00 in0.0 mm 0.00 in0.0 mm 0.20 in5.1 mm
01:20 PM 60.6°F15.9°C 53.7°F12.1°C 78% 3.1 mph SSW5.0 kmh SSW 9.3 mph15.0 kmh 30.01 in1016.3 mb 0.00 in0.0 mm 0.00 in0.0 mm 0.20 in5.1 mm
01:30 PM 60.4°F15.8°C 53.2°F11.8°C 77% 4.1 mph S6.6 kmh S 8.6 mph13.8 kmh 29.98 in1015.2 mb 0.00 in0.0 mm 0.00 in0.0 mm 0.20 in5.1 mm
01:40 PM 61.3°F16.3°C 54.1°F12.3°C 77% 5.4 mph SSW8.7 kmh SSW 10.0 mph16.1 kmh 30.01 in1016.3 mb 0.00 in0.0 mm 0.00 in0.0 mm 0.20 in5.1 mm
01:50 PM 62.2°F16.8°C 54.2°F12.3°C 75% 6.2 mph S10.0 kmh S 10.0 mph16.1 kmh 30.01 in1016.3 mb 0.00 in0.0 mm 0.00 in0.0 mm 0.20 in5.1 mm
02:00 PM 62.1°F16.7°C 52.9°F11.6°C 72% 7.4 mph S11.9 kmh S 16.1 mph25.9 kmh 30.01 in1016.3 mb 0.00 in0.0 mm 0.00 in0.0 mm 0.20 in5.1 mm
02:10 PM 62.6°F17.0°C 52.7°F11.5°C 70% 5.8 mph S9.3 kmh S 16.8 mph27.0 kmh 30.01 in1016.3 mb 0.00 in0.0 mm 0.00 in0.0 mm 0.20 in5.1 mm
02:20 PM 63.0°F17.2°C 52.6°F11.4°C 69% 6.9 mph SW11.1 kmh SW 12.2 mph19.6 kmh 30.01 in1016.3 mb 0.00 in0.0 mm 0.00 in0.0 mm 0.20 in5.1 mm
02:30 PM 62.6°F17.0°C 51.5°F10.8°C 67% 8.5 mph SSW13.7 kmh SSW 20.8 mph33.5 kmh 30.01 in1016.3 mb 0.00 in0.0 mm 0.00 in0.0 mm 0.20 in5.1 mm
02:40 PM 62.4°F16.9°C 51.7°F10.9°C 68% 4.5 mph S7.2 kmh S 7.5 mph12.1 kmh 30.01 in1016.3 mb 0.00 in0.0 mm 0.00 in0.0 mm 0.20 in5.1 mm
02:50 PM 62.6°F17.0°C 51.5°F10.8°C 67% 3.6 mph S5.8 kmh S 6.8 mph10.9 kmh 30.01 in1016.3 mb 0.00 in0.0 mm 0.00 in0.0 mm 0.20 in5.1 mm
03:00 PM 62.6°F17.0°C 51.1°F10.6°C 66% 4.0 mph W6.4 kmh W 6.8 mph10.9 kmh 30.01 in1016.3 mb 0.00 in0.0 mm 0.00 in0.0 mm 0.20 in5.1 mm
03:10 PM 62.6°F17.0°C 51.1°F10.6°C 66% 4.1 mph WSW6.6 kmh WSW 8.6 mph13.8 kmh 30.01 in1016.3 mb 0.00 in0.0 mm 0.00 in0.0 mm 0.20 in5.1 mm
03:20 PM 62.8°F17.1°C 51.2°F10.7°C 66% 5.6 mph S9.0 kmh S 9.3 mph15.0 kmh 30.01 in1016.3 mb 0.00 in0.0 mm 0.00 in0.0 mm 0.20 in5.1 mm
03:30 PM 63.1°F17.3°C 51.6°F10.9°C 66% 6.1 mph S9.8 kmh S 12.2 mph19.6 kmh 30.01 in1016.3 mb 0.00 in0.0 mm 0.00 in0.0 mm 0.20 in5.1 mm
03:40 PM 62.6°F17.0°C 51.1°F10.6°C 66% 9.9 mph S15.9 kmh S 12.2 mph19.6 kmh 30.04 in1017.3 mb 0.00 in0.0 mm 0.00 in0.0 mm 0.20 in5.1 mm
03:50 PM 62.1°F16.7°C 51.0°F10.6°C 67% 5.3 mph SW8.5 kmh SW 12.2 mph19.6 kmh 30.04 in1017.3 mb 0.00 in0.0 mm 0.00 in0.0 mm 0.20 in5.1 mm
04:00 PM 61.9°F16.6°C 50.8°F10.4°C 67% 2.7 mph S4.3 kmh S 5.0 mph8.0 kmh 30.04 in1017.3 mb 0.00 in0.0 mm 0.00 in0.0 mm 0.20 in5.1 mm
04:10 PM 61.7°F16.5°C 51.0°F10.6°C 68% 3.2 mph S5.1 kmh S 5.0 mph8.0 kmh 30.04 in1017.3 mb 0.00 in0.0 mm 0.00 in0.0 mm 0.20 in5.1 mm
04:20 PM 62.1°F16.7°C 51.4°F10.8°C 68% 3.6 mph WSW5.8 kmh WSW 9.7 mph15.6 kmh 30.04 in1017.3 mb 0.00 in0.0 mm 0.00 in0.0 mm 0.20 in5.1 mm
04:30 PM 62.1°F16.7°C 51.4°F10.8°C 68% 5.3 mph SW8.5 kmh SW 9.7 mph15.6 kmh 30.04 in1017.3 mb 0.00 in0.0 mm 0.00 in0.0 mm 0.20 in5.1 mm
04:40 PM 61.9°F16.6°C 50.8°F10.4°C 67% 4.6 mph SSW7.4 kmh SSW 8.9 mph14.3 kmh 30.04 in1017.3 mb 0.00 in0.0 mm 0.00 in0.0 mm 0.20 in5.1 mm
04:50 PM 61.5°F16.4°C 50.9°F10.5°C 68% 2.2 mph WSW3.5 kmh WSW 4.7 mph7.6 kmh 30.04 in1017.3 mb 0.00 in0.0 mm 0.00 in0.0 mm 0.20 in5.1 mm
05:00 PM 61.3°F16.3°C 50.7°F10.4°C 68% 3.1 mph S5.0 kmh S 5.0 mph8.0 kmh 30.04 in1017.3 mb 0.00 in0.0 mm 0.00 in0.0 mm 0.20 in5.1 mm
05:10 PM 61.3°F16.3°C 50.7°F10.4°C 68% 4.2 mph S6.8 kmh S 8.6 mph13.8 kmh 30.04 in1017.3 mb 0.00 in0.0 mm 0.00 in0.0 mm 0.20 in5.1 mm
05:20 PM 61.3°F16.3°C 50.7°F10.4°C 68% 2.6 mph SW4.2 kmh SW 4.3 mph6.9 kmh 30.04 in1017.3 mb 0.00 in0.0 mm 0.00 in0.0 mm 0.20 in5.1 mm
05:30 PM 61.0°F16.1°C 50.3°F10.2°C 68% 3.1 mph W5.0 kmh W 7.5 mph12.1 kmh 30.04 in1017.3 mb 0.00 in0.0 mm 0.00 in0.0 mm 0.20 in5.1 mm
05:40 PM 60.6°F15.9°C 50.4°F10.2°C 69% 1.1 mph W1.8 kmh W 3.6 mph5.8 kmh 30.04 in1017.3 mb 0.00 in0.0 mm 0.00 in0.0 mm 0.20 in5.1 mm
05:50 PM 60.1°F15.6°C 49.9°F9.9°C 69% 3.6 mph W5.8 kmh W 5.4 mph8.7 kmh 30.04 in1017.3 mb 0.00 in0.0 mm 0.00 in0.0 mm 0.20 in5.1 mm
06:00 PM 59.5°F15.3°C 49.7°F9.8°C 70% 2.1 mph W3.4 kmh W 4.7 mph7.6 kmh 30.04 in1017.3 mb 0.00 in0.0 mm 0.00 in0.0 mm 0.20 in5.1 mm
06:10 PM 59.2°F15.1°C 49.4°F9.7°C 70% Calm Calm -- 30.07 in1018.3 mb 0.00 in0.0 mm 0.00 in0.0 mm 0.20 in5.1 mm
06:20 PM 58.6°F14.8°C 49.3°F9.6°C 71% 2.5 mph S4.0 kmh S 5.4 mph8.7 kmh 30.07 in1018.3 mb 0.00 in0.0 mm 0.00 in0.0 mm 0.20 in5.1 mm
06:30 PM 58.1°F14.5°C 49.1°F9.5°C 72% 0.5 mph S0.8 kmh S 5.4 mph8.7 kmh 30.07 in1018.3 mb 0.00 in0.0 mm 0.00 in0.0 mm 0.20 in5.1 mm
06:40 PM 57.6°F14.2°C 49.0°F9.4°C 73% 0.8 mph S1.3 kmh S 2.5 mph4.0 kmh 30.07 in1018.3 mb 0.00 in0.0 mm 0.00 in0.0 mm 0.20 in5.1 mm
06:50 PM 56.8°F13.8°C 48.6°F9.2°C 74% 0.4 mph S0.6 kmh S 2.1 mph3.4 kmh 30.07 in1018.3 mb 0.00 in0.0 mm 0.00 in0.0 mm 0.20 in5.1 mm
07:00 PM 56.5°F13.6°C 48.3°F9.1°C 74% 0.4 mph S0.6 kmh S 1.8 mph2.9 kmh 30.07 in1018.3 mb 0.00 in0.0 mm 0.00 in0.0 mm 0.20 in5.1 mm
07:10 PM 55.9°F13.3°C 48.5°F9.2°C 76% Calm Calm -- 30.09 in1019.0 mb 0.00 in0.0 mm 0.00 in0.0 mm 0.20 in5.1 mm
07:20 PM 55.6°F13.1°C 48.1°F8.9°C 76% Calm Calm -- 30.09 in1019.0 mb 0.00 in0.0 mm 0.00 in0.0 mm 0.20 in5.1 mm
07:30 PM 55.2°F12.9°C 48.1°F8.9°C 77% 0.2 mph S0.3 kmh S 1.8 mph2.9 kmh 30.07 in1018.3 mb 0.00 in0.0 mm 0.00 in0.0 mm 0.20 in5.1 mm
07:40 PM 54.9°F12.7°C 47.8°F8.8°C 77% 0.6 mph SE1.0 kmh SE 4.7 mph7.6 kmh 30.04 in1017.3 mb 0.00 in0.0 mm 0.00 in0.0 mm 0.20 in5.1 mm
07:50 PM 54.5°F12.5°C 47.8°F8.8°C 78% 1.5 mph SE2.4 kmh SE 6.8 mph10.9 kmh 30.04 in1017.3 mb 0.00 in0.0 mm 0.00 in0.0 mm 0.20 in5.1 mm
08:00 PM 54.1°F12.3°C 47.8°F8.8°C 79% 1.5 mph SE2.4 kmh SE 6.4 mph10.3 kmh 30.04 in1017.3 mb 0.00 in0.0 mm 0.00 in0.0 mm 0.20 in5.1 mm
08:10 PM 54.0°F12.2°C 47.9°F8.8°C 80% 0.9 mph ESE1.4 kmh ESE 5.4 mph8.7 kmh 30.07 in1018.3 mb 0.00 in0.0 mm 0.00 in0.0 mm 0.20 in5.1 mm
08:20 PM 53.8°F12.1°C 48.1°F8.9°C 81% 2.2 mph SE3.5 kmh SE 6.8 mph10.9 kmh 30.07 in1018.3 mb 0.00 in0.0 mm 0.00 in0.0 mm 0.20 in5.1 mm
08:30 PM 53.6°F12.0°C 48.6°F9.2°C 83% Calm Calm -- 30.07 in1018.3 mb 0.00 in0.0 mm 0.00 in0.0 mm 0.20 in5.1 mm
08:40 PM 53.4°F11.9°C 48.7°F9.3°C 84% Calm Calm -- 30.07 in1018.3 mb 0.00 in0.0 mm 0.00 in0.0 mm 0.20 in5.1 mm
08:50 PM 53.2°F11.8°C 48.5°F9.2°C 84% 0.7 mph SE1.1 kmh SE 6.1 mph9.8 kmh 30.07 in1018.3 mb 0.00 in0.0 mm 0.00 in0.0 mm 0.20 in5.1 mm
09:00 PM 53.2°F11.8°C 48.8°F9.3°C 85% 1.4 mph ESE2.3 kmh ESE 6.1 mph9.8 kmh 30.07 in1018.3 mb 0.00 in0.0 mm 0.00 in0.0 mm 0.20 in5.1 mm
09:10 PM 53.1°F11.7°C 48.7°F9.3°C 85% 2.3 mph SE3.7 kmh SE 7.2 mph11.6 kmh 30.09 in1019.0 mb 0.00 in0.0 mm 0.00 in0.0 mm 0.20 in5.1 mm
09:20 PM 53.1°F11.7°C 49.3°F9.6°C 87% 6.0 mph SE9.7 kmh SE 8.9 mph14.3 kmh 30.09 in1019.0 mb 0.00 in0.0 mm 0.00 in0.0 mm 0.20 in5.1 mm
09:30 PM 53.1°F11.7°C 49.6°F9.8°C 88% 2.0 mph ESE3.2 kmh ESE 8.6 mph13.8 kmh 30.07 in1018.3 mb 0.00 in0.0 mm 0.00 in0.0 mm 0.20 in5.1 mm
09:40 PM 52.9°F11.6°C 49.1°F9.5°C 87% 2.9 mph ESE4.7 kmh ESE 8.9 mph14.3 kmh 30.09 in1019.0 mb 0.00 in0.0 mm 0.00 in0.0 mm 0.20 in5.1 mm
09:50 PM 52.5°F11.4°C 48.8°F9.3°C 87% Calm Calm -- 30.07 in1018.3 mb 0.00 in0.0 mm 0.00 in0.0 mm 0.20 in5.1 mm
10:00 PM 52.3°F11.3°C 48.6°F9.2°C 87% Calm Calm -- 30.07 in1018.3 mb 0.00 in0.0 mm 0.00 in0.0 mm 0.20 in5.1 mm
10:10 PM 52.2°F11.2°C 48.4°F9.1°C 87% Calm Calm -- 30.07 in1018.3 mb 0.00 in0.0 mm 0.00 in0.0 mm 0.20 in5.1 mm
10:20 PM 52.0°F11.1°C 48.5°F9.2°C 88% Calm Calm -- 30.07 in1018.3 mb 0.00 in0.0 mm 0.00 in0.0 mm 0.20 in5.1 mm
10:30 PM 52.2°F11.2°C 48.7°F9.3°C 88% 0.8 mph ESE1.3 kmh ESE 6.8 mph10.9 kmh 30.07 in1018.3 mb 0.00 in0.0 mm 0.00 in0.0 mm 0.20 in5.1 mm
10:40 PM 52.2°F11.2°C 49.0°F9.4°C 89% 4.0 mph ESE6.4 kmh ESE 8.6 mph13.8 kmh 30.07 in1018.3 mb 0.00 in0.0 mm 0.00 in0.0 mm 0.20 in5.1 mm
10:50 PM 52.3°F11.3°C 49.5°F9.7°C 90% 4.6 mph ESE7.4 kmh ESE 9.7 mph15.6 kmh 30.07 in1018.3 mb 0.00 in0.0 mm 0.00 in0.0 mm 0.20 in5.1 mm
11:00 PM 52.5°F11.4°C 49.7°F9.8°C 90% 3.9 mph E6.3 kmh E 8.6 mph13.8 kmh 30.07 in1018.3 mb 0.00 in0.0 mm 0.00 in0.0 mm 0.20 in5.1 mm
11:10 PM 52.3°F11.3°C 49.5°F9.7°C 90% 5.1 mph ESE8.2 kmh ESE 8.9 mph14.3 kmh 30.07 in1018.3 mb 0.00 in0.0 mm 0.00 in0.0 mm 0.20 in5.1 mm
11:20 PM 52.3°F11.3°C 49.2°F9.6°C 89% 3.9 mph ESE6.3 kmh ESE 7.9 mph12.7 kmh 30.07 in1018.3 mb 0.00 in0.0 mm 0.00 in0.0 mm 0.20 in5.1 mm
11:30 PM 52.3°F11.3°C 49.2°F9.6°C 89% 4.0 mph SE6.4 kmh SE 10.4 mph16.7 kmh 30.09 in1019.0 mb 0.00 in0.0 mm 0.00 in0.0 mm 0.20 in5.1 mm
11:40 PM 52.3°F11.3°C 49.5°F9.7°C 90% 6.3 mph ESE10.1 kmh ESE 10.0 mph16.1 kmh 30.09 in1019.0 mb 0.00 in0.0 mm 0.00 in0.0 mm 0.20 in5.1 mm
11:50 PM 52.3°F11.3°C 49.5°F9.7°C 90% 6.9 mph SE11.1 kmh SE 10.0 mph16.1 kmh 30.09 in1019.0 mb 0.00 in0.0 mm 0.00 in0.0 mm 0.20 in5.1 mm